sensor_id;sensor_type;location;lat;lon;timestamp;temperature;humidity
5980;DHT22;3016;50.308;8.258;2023-10-13T00:02:41;14.90;99.90
5980;DHT22;3016;50.308;8.258;2023-10-13T00:05:43;14.90;99.90
5980;DHT22;3016;50.308;8.258;2023-10-13T00:08:45;14.90;99.90
5980;DHT22;3016;50.308;8.258;2023-10-13T00:11:46;14.90;99.90
5980;DHT22;3016;50.308;8.258;2023-10-13T00:14:47;14.80;99.90
5980;DHT22;3016;50.308;8.258;2023-10-13T00:17:51;14.80;99.90
5980;DHT22;3016;50.308;8.258;2023-10-13T00:20:53;14.80;99.90
5980;DHT22;3016;50.308;8.258;2023-10-13T00:23:57;14.80;99.90
5980;DHT22;3016;50.308;8.258;2023-10-13T00:27:01;14.80;99.90
5980;DHT22;3016;50.308;8.258;2023-10-13T00:30:07;14.80;99.90
5980;DHT22;3016;50.308;8.258;2023-10-13T00:33:33;14.80;99.90
5980;DHT22;3016;50.308;8.258;2023-10-13T00:36:36;14.80;99.90
5980;DHT22;3016;50.308;8.258;2023-10-13T00:39:37;14.80;99.90
5980;DHT22;3016;50.308;8.258;2023-10-13T00:42:42;14.80;99.90
5980;DHT22;3016;50.308;8.258;2023-10-13T00:45:56;14.80;99.90
5980;DHT22;3016;50.308;8.258;2023-10-13T00:48:58;14.80;99.90
5980;DHT22;3016;50.308;8.258;2023-10-13T00:51:58;14.80;99.90
5980;DHT22;3016;50.308;8.258;2023-10-13T00:55:00;14.90;99.90
5980;DHT22;3016;50.308;8.258;2023-10-13T00:58:02;14.90;99.90
5980;DHT22;3016;50.308;8.258;2023-10-13T01:01:03;14.80;99.90
5980;DHT22;3016;50.308;8.258;2023-10-13T01:04:22;14.80;99.90
5980;DHT22;3016;50.308;8.258;2023-10-13T01:07:28;14.80;99.90
5980;DHT22;3016;50.308;8.258;2023-10-13T01:10:29;14.80;99.90
5980;DHT22;3016;50.308;8.258;2023-10-13T01:13:33;14.80;99.90
5980;DHT22;3016;50.308;8.258;2023-10-13T01:16:38;14.80;99.90
5980;DHT22;3016;50.308;8.258;2023-10-13T01:19:44;14.80;99.90
5980;DHT22;3016;50.308;8.258;2023-10-13T01:22:46;14.80;99.90
5980;DHT22;3016;50.308;8.258;2023-10-13T01:25:55;14.80;99.90
5980;DHT22;3016;50.308;8.258;2023-10-13T01:28:58;14.80;99.90
5980;DHT22;3016;50.308;8.258;2023-10-13T01:31:58;14.90;99.90
5980;DHT22;3016;50.308;8.258;2023-10-13T01:34:59;14.90;99.90
5980;DHT22;3016;50.308;8.258;2023-10-13T01:38:06;15.00;99.90
5980;DHT22;3016;50.308;8.258;2023-10-13T01:41:07;15.00;99.90
5980;DHT22;3016;50.308;8.258;2023-10-13T01:44:10;15.10;99.90
5980;DHT22;3016;50.308;8.258;2023-10-13T01:47:15;15.10;99.90
5980;DHT22;3016;50.308;8.258;2023-10-13T01:50:16;15.20;99.90
5980;DHT22;3016;50.308;8.258;2023-10-13T01:53:30;15.30;99.90
5980;DHT22;3016;50.308;8.258;2023-10-13T01:56:30;15.30;99.90
5980;DHT22;3016;50.308;8.258;2023-10-13T01:59:32;15.30;99.90
5980;DHT22;3016;50.308;8.258;2023-10-13T02:02:32;15.30;99.90
5980;DHT22;3016;50.308;8.258;2023-10-13T02:05:33;15.30;99.90
5980;DHT22;3016;50.308;8.258;2023-10-13T02:08:36;15.30;99.90
5980;DHT22;3016;50.308;8.258;2023-10-13T02:11:42;15.30;99.90
5980;DHT22;3016;50.308;8.258;2023-10-13T02:14:46;15.30;99.90
5980;DHT22;3016;50.308;8.258;2023-10-13T02:17:46;15.30;99.90
5980;DHT22;3016;50.308;8.258;2023-10-13T02:20:53;15.30;99.90
5980;DHT22;3016;50.308;8.258;2023-10-13T02:24:08;15.20;99.90
5980;DHT22;3016;50.308;8.258;2023-10-13T02:27:19;15.30;99.90
5980;DHT22;3016;50.308;8.258;2023-10-13T02:30:23;15.30;99.90
5980;DHT22;3016;50.308;8.258;2023-10-13T02:33:25;15.40;99.90
5980;DHT22;3016;50.308;8.258;2023-10-13T02:36:32;15.40;99.90
5980;DHT22;3016;50.308;8.258;2023-10-13T02:39:52;15.50;99.90
5980;DHT22;3016;50.308;8.258;2023-10-13T02:42:52;15.60;99.80
5980;DHT22;3016;50.308;8.258;2023-10-13T02:45:53;15.60;99.60
5980;DHT22;3016;50.308;8.258;2023-10-13T02:49:02;15.60;99.30
5980;DHT22;3016;50.308;8.258;2023-10-13T02:52:11;15.60;99.00
5980;DHT22;3016;50.308;8.258;2023-10-13T02:55:13;15.60;98.70
5980;DHT22;3016;50.308;8.258;2023-10-13T02:58:16;15.60;98.70
5980;DHT22;3016;50.308;8.258;2023-10-13T03:01:18;15.60;98.50
5980;DHT22;3016;50.308;8.258;2023-10-13T03:04:18;15.60;98.00
5980;DHT22;3016;50.308;8.258;2023-10-13T03:07:26;15.60;98.10
5980;DHT22;3016;50.308;8.258;2023-10-13T03:10:28;15.60;98.30
5980;DHT22;3016;50.308;8.258;2023-10-13T03:13:29;15.60;98.20
5980;DHT22;3016;50.308;8.258;2023-10-13T03:16:33;15.60;97.90
5980;DHT22;3016;50.308;8.258;2023-10-13T03:19:35;15.60;98.10
5980;DHT22;3016;50.308;8.258;2023-10-13T03:22:37;15.60;98.10
5980;DHT22;3016;50.308;8.258;2023-10-13T03:25:37;15.60;98.00
5980;DHT22;3016;50.308;8.258;2023-10-13T03:28:42;15.60;98.20
5980;DHT22;3016;50.308;8.258;2023-10-13T03:31:47;15.60;98.10
5980;DHT22;3016;50.308;8.258;2023-10-13T03:35:04;15.60;98.20
5980;DHT22;3016;50.308;8.258;2023-10-13T03:38:13;15.70;97.80
5980;DHT22;3016;50.308;8.258;2023-10-13T03:41:17;15.70;97.30
5980;DHT22;3016;50.308;8.258;2023-10-13T03:44:24;15.70;96.80
5980;DHT22;3016;50.308;8.258;2023-10-13T03:47:30;15.70;97.10
5980;DHT22;3016;50.308;8.258;2023-10-13T03:50:32;15.70;96.80
5980;DHT22;3016;50.308;8.258;2023-10-13T03:53:36;15.70;96.80
5980;DHT22;3016;50.308;8.258;2023-10-13T03:56:52;15.70;96.80
5980;DHT22;3016;50.308;8.258;2023-10-13T03:59:56;15.70;96.60
5980;DHT22;3016;50.308;8.258;2023-10-13T04:02:57;15.80;96.40
5980;DHT22;3016;50.308;8.258;2023-10-13T04:06:07;15.80;96.20
5980;DHT22;3016;50.308;8.258;2023-10-13T04:09:08;15.80;95.40
5980;DHT22;3016;50.308;8.258;2023-10-13T04:12:28;15.90;94.00
5980;DHT22;3016;50.308;8.258;2023-10-13T04:16:01;16.00;91.30
5980;DHT22;3016;50.308;8.258;2023-10-13T04:19:20;16.00;90.10
5980;DHT22;3016;50.308;8.258;2023-10-13T04:22:24;16.00;86.40
5980;DHT22;3016;50.308;8.258;2023-10-13T04:25:44;16.00;86.10
5980;DHT22;3016;50.308;8.258;2023-10-13T04:28:45;16.00;86.30
5980;DHT22;3016;50.308;8.258;2023-10-13T04:31:56;15.90;87.90
5980;DHT22;3016;50.308;8.258;2023-10-13T04:35:01;16.00;86.90
5980;DHT22;3016;50.308;8.258;2023-10-13T04:38:18;16.00;87.50
5980;DHT22;3016;50.308;8.258;2023-10-13T04:41:21;16.00;84.70
5980;DHT22;3016;50.308;8.258;2023-10-13T04:44:24;16.00;85.10
5980;DHT22;3016;50.308;8.258;2023-10-13T04:47:43;16.00;87.30
5980;DHT22;3016;50.308;8.258;2023-10-13T04:51:01;16.00;87.90
5980;DHT22;3016;50.308;8.258;2023-10-13T04:54:20;16.00;86.80
5980;DHT22;3016;50.308;8.258;2023-10-13T04:57:29;16.00;86.70
5980;DHT22;3016;50.308;8.258;2023-10-13T05:00:47;16.00;86.30
5980;DHT22;3016;50.308;8.258;2023-10-13T05:04:16;16.00;86.50
5980;DHT22;3016;50.308;8.258;2023-10-13T05:07:22;16.10;86.00
5980;DHT22;3016;50.308;8.258;2023-10-13T05:10:42;16.10;84.40
5980;DHT22;3016;50.308;8.258;2023-10-13T05:14:01;16.10;81.60
5980;DHT22;3016;50.308;8.258;2023-10-13T05:17:20;16.10;81.60
5980;DHT22;3016;50.308;8.258;2023-10-13T05:20:43;16.10;81.90
5980;DHT22;3016;50.308;8.258;2023-10-13T05:24:04;16.10;79.40
5980;DHT22;3016;50.308;8.258;2023-10-13T05:27:23;16.20;74.20
5980;DHT22;3016;50.308;8.258;2023-10-13T05:30:42;16.20;72.90
5980;DHT22;3016;50.308;8.258;2023-10-13T05:34:02;16.20;73.40
5980;DHT22;3016;50.308;8.258;2023-10-13T05:37:21;16.10;71.80
5980;DHT22;3016;50.308;8.258;2023-10-13T05:40:58;16.20;70.50
5980;DHT22;3016;50.308;8.258;2023-10-13T05:44:18;16.30;63.60
5980;DHT22;3016;50.308;8.258;2023-10-13T05:47:37;16.30;61.40
5980;DHT22;3016;50.308;8.258;2023-10-13T05:50:43;16.30;60.30
5980;DHT22;3016;50.308;8.258;2023-10-13T05:53:58;16.40;56.70
5980;DHT22;3016;50.308;8.258;2023-10-13T05:57:14;16.40;52.80
5980;DHT22;3016;50.308;8.258;2023-10-13T06:00:44;16.40;50.60
5980;DHT22;3016;50.308;8.258;2023-10-13T06:04:03;16.40;49.10
5980;DHT22;3016;50.308;8.258;2023-10-13T06:07:23;16.40;50.90
5980;DHT22;3016;50.308;8.258;2023-10-13T06:10:43;16.30;51.00
5980;DHT22;3016;50.308;8.258;2023-10-13T06:14:02;16.30;52.50
5980;DHT22;3016;50.308;8.258;2023-10-13T06:17:22;16.40;50.10
5980;DHT22;3016;50.308;8.258;2023-10-13T06:20:41;16.40;50.30
5980;DHT22;3016;50.308;8.258;2023-10-13T06:24:00;16.40;47.60
5980;DHT22;3016;50.308;8.258;2023-10-13T06:27:20;16.40;49.80
5980;DHT22;3016;50.308;8.258;2023-10-13T06:30:39;16.40;46.60
5980;DHT22;3016;50.308;8.258;2023-10-13T06:33:40;16.40;48.20
5980;DHT22;3016;50.308;8.258;2023-10-13T06:36:47;16.40;46.50
5980;DHT22;3016;50.308;8.258;2023-10-13T06:39:49;16.40;46.50
5980;DHT22;3016;50.308;8.258;2023-10-13T06:42:50;16.50;44.40
5980;DHT22;3016;50.308;8.258;2023-10-13T06:45:53;16.50;41.40
5980;DHT22;3016;50.308;8.258;2023-10-13T06:49:03;16.50;48.50
5980;DHT22;3016;50.308;8.258;2023-10-13T06:52:07;16.50;49.50
5980;DHT22;3016;50.308;8.258;2023-10-13T06:55:09;16.40;52.00
5980;DHT22;3016;50.308;8.258;2023-10-13T06:58:11;16.50;44.20
5980;DHT22;3016;50.308;8.258;2023-10-13T07:01:13;16.60;41.50
5980;DHT22;3016;50.308;8.258;2023-10-13T07:04:22;16.60;33.80
5980;DHT22;3016;50.308;8.258;2023-10-13T07:07:24;16.60;38.00
5980;DHT22;3016;50.308;8.258;2023-10-13T07:10:24;16.60;34.60
5980;DHT22;3016;50.308;8.258;2023-10-13T07:13:30;16.70;30.30
5980;DHT22;3016;50.308;8.258;2023-10-13T07:16:31;16.70;28.50
5980;DHT22;3016;50.308;8.258;2023-10-13T07:19:35;16.80;28.00
5980;DHT22;3016;50.308;8.258;2023-10-13T07:22:45;16.80;25.10
5980;DHT22;3016;50.308;8.258;2023-10-13T07:25:57;16.80;27.00
5980;DHT22;3016;50.308;8.258;2023-10-13T07:29:03;16.80;26.40
5980;DHT22;3016;50.308;8.258;2023-10-13T07:32:08;16.80;24.20
5980;DHT22;3016;50.308;8.258;2023-10-13T07:35:14;16.90;25.10
5980;DHT22;3016;50.308;8.258;2023-10-13T07:38:18;16.90;20.40
5980;DHT22;3016;50.308;8.258;2023-10-13T07:41:21;16.90;23.50
5980;DHT22;3016;50.308;8.258;2023-10-13T07:44:31;17.00;22.20
5980;DHT22;3016;50.308;8.258;2023-10-13T07:47:33;17.00;15.80
5980;DHT22;3016;50.308;8.258;2023-10-13T07:50:34;17.20;12.30
5980;DHT22;3016;50.308;8.258;2023-10-13T07:53:36;17.30;7.40
5980;DHT22;3016;50.308;8.258;2023-10-13T07:56:49;17.50;1.00
5980;DHT22;3016;50.308;8.258;2023-10-13T07:59:51;17.50;1.00
5980;DHT22;3016;50.308;8.258;2023-10-13T08:03:01;17.50;1.00
5980;DHT22;3016;50.308;8.258;2023-10-13T08:06:17;17.60;1.00
5980;DHT22;3016;50.308;8.258;2023-10-13T08:09:18;17.60;1.00
5980;DHT22;3016;50.308;8.258;2023-10-13T08:12:32;17.60;1.00
5980;DHT22;3016;50.308;8.258;2023-10-13T08:15:32;17.60;1.00
5980;DHT22;3016;50.308;8.258;2023-10-13T08:18:33;17.60;1.00
5980;DHT22;3016;50.308;8.258;2023-10-13T08:21:36;17.60;1.00
5980;DHT22;3016;50.308;8.258;2023-10-13T08:24:37;17.70;1.00
5980;DHT22;3016;50.308;8.258;2023-10-13T08:27:38;17.60;1.00
5980;DHT22;3016;50.308;8.258;2023-10-13T08:31:04;17.60;1.00
5980;DHT22;3016;50.308;8.258;2023-10-13T08:34:22;17.60;1.00
5980;DHT22;3016;50.308;8.258;2023-10-13T08:37:25;17.60;1.00
5980;DHT22;3016;50.308;8.258;2023-10-13T08:40:27;17.70;1.00
5980;DHT22;3016;50.308;8.258;2023-10-13T08:43:43;17.70;1.00
5980;DHT22;3016;50.308;8.258;2023-10-13T08:46:51;17.70;1.00
5980;DHT22;3016;50.308;8.258;2023-10-13T08:50:06;17.70;1.00
5980;DHT22;3016;50.308;8.258;2023-10-13T08:53:32;17.70;1.00
5980;DHT22;3016;50.308;8.258;2023-10-13T08:56:47;17.80;1.00
5980;DHT22;3016;50.308;8.258;2023-10-13T09:00:04;17.90;1.00
5980;DHT22;3016;50.308;8.258;2023-10-13T09:03:24;17.90;1.00
5980;DHT22;3016;50.308;8.258;2023-10-13T09:06:29;17.90;1.00
5980;DHT22;3016;50.308;8.258;2023-10-13T09:09:31;18.00;1.00
5980;DHT22;3016;50.308;8.258;2023-10-13T09:12:54;18.00;1.00
5980;DHT22;3016;50.308;8.258;2023-10-13T09:16:12;18.10;1.00
5980;DHT22;3016;50.308;8.258;2023-10-13T09:19:17;18.10;1.00
5980;DHT22;3016;50.308;8.258;2023-10-13T09:22:22;18.20;1.00
5980;DHT22;3016;50.308;8.258;2023-10-13T09:25:40;18.30;1.00
5980;DHT22;3016;50.308;8.258;2023-10-13T09:29:01;18.40;1.00
5980;DHT22;3016;50.308;8.258;2023-10-13T09:32:07;18.50;1.00
5980;DHT22;3016;50.308;8.258;2023-10-13T09:35:19;18.50;1.00
5980;DHT22;3016;50.308;8.258;2023-10-13T09:38:23;18.50;1.00
5980;DHT22;3016;50.308;8.258;2023-10-13T09:41:24;18.60;1.00
5980;DHT22;3016;50.308;8.258;2023-10-13T09:44:27;18.70;1.00
5980;DHT22;3016;50.308;8.258;2023-10-13T09:47:31;18.70;1.00
5980;DHT22;3016;50.308;8.258;2023-10-13T09:50:37;18.80;1.00
5980;DHT22;3016;50.308;8.258;2023-10-13T09:53:45;18.90;1.00
5980;DHT22;3016;50.308;8.258;2023-10-13T09:56:57;18.90;1.00
5980;DHT22;3016;50.308;8.258;2023-10-13T10:00:11;19.00;1.00
5980;DHT22;3016;50.308;8.258;2023-10-13T10:03:48;19.00;1.00
5980;DHT22;3016;50.308;8.258;2023-10-13T10:07:11;19.10;1.00
5980;DHT22;3016;50.308;8.258;2023-10-13T10:10:22;19.00;1.00
5980;DHT22;3016;50.308;8.258;2023-10-13T10:13:35;19.10;1.00
5980;DHT22;3016;50.308;8.258;2023-10-13T10:17:11;19.20;1.00
5980;DHT22;3016;50.308;8.258;2023-10-13T10:20:13;19.30;1.00
5980;DHT22;3016;50.308;8.258;2023-10-13T10:23:28;19.50;1.00
5980;DHT22;3016;50.308;8.258;2023-10-13T10:26:36;19.60;1.00
5980;DHT22;3016;50.308;8.258;2023-10-13T10:29:37;19.70;1.00
5980;DHT22;3016;50.308;8.258;2023-10-13T10:32:37;19.70;1.00
5980;DHT22;3016;50.308;8.258;2023-10-13T10:35:42;19.80;1.00
5980;DHT22;3016;50.308;8.258;2023-10-13T10:38:57;19.80;1.00
5980;DHT22;3016;50.308;8.258;2023-10-13T10:42:10;19.80;1.00
5980;DHT22;3016;50.308;8.258;2023-10-13T10:45:29;19.70;1.00
5980;DHT22;3016;50.308;8.258;2023-10-13T10:48:34;19.70;1.00
5980;DHT22;3016;50.308;8.258;2023-10-13T10:51:40;19.80;1.00
5980;DHT22;3016;50.308;8.258;2023-10-13T10:54:45;19.80;1.00
5980;DHT22;3016;50.308;8.258;2023-10-13T10:57:59;19.90;1.00
5980;DHT22;3016;50.308;8.258;2023-10-13T11:01:06;20.10;1.00
5980;DHT22;3016;50.308;8.258;2023-10-13T11:04:21;20.20;1.00
5980;DHT22;3016;50.308;8.258;2023-10-13T11:07:34;20.30;1.00
5980;DHT22;3016;50.308;8.258;2023-10-13T11:10:36;20.40;1.00
5980;DHT22;3016;50.308;8.258;2023-10-13T11:13:42;20.60;1.00
5980;DHT22;3016;50.308;8.258;2023-10-13T11:16:56;20.60;1.00
5980;DHT22;3016;50.308;8.258;2023-10-13T11:20:08;20.50;1.00
5980;DHT22;3016;50.308;8.258;2023-10-13T11:23:16;20.50;1.00
5980;DHT22;3016;50.308;8.258;2023-10-13T11:26:17;20.50;1.00
5980;DHT22;3016;50.308;8.258;2023-10-13T11:29:19;20.60;1.00
5980;DHT22;3016;50.308;8.258;2023-10-13T11:32:31;20.80;1.00
5980;DHT22;3016;50.308;8.258;2023-10-13T11:35:36;20.90;1.00
5980;DHT22;3016;50.308;8.258;2023-10-13T11:38:53;21.10;1.00
5980;DHT22;3016;50.308;8.258;2023-10-13T11:41:58;21.30;1.00
5980;DHT22;3016;50.308;8.258;2023-10-13T11:44:58;21.40;1.00
5980;DHT22;3016;50.308;8.258;2023-10-13T11:48:22;21.50;1.00
5980;DHT22;3016;50.308;8.258;2023-10-13T11:51:37;21.70;1.00
5980;DHT22;3016;50.308;8.258;2023-10-13T11:54:38;21.80;1.00
5980;DHT22;3016;50.308;8.258;2023-10-13T11:57:42;21.90;1.00
5980;DHT22;3016;50.308;8.258;2023-10-13T12:00:43;21.90;1.00
5980;DHT22;3016;50.308;8.258;2023-10-13T12:04:12;22.00;1.00
5980;DHT22;3016;50.308;8.258;2023-10-13T12:07:33;22.10;1.00
5980;DHT22;3016;50.308;8.258;2023-10-13T12:10:48;22.30;1.00
5980;DHT22;3016;50.308;8.258;2023-10-13T12:14:00;22.30;1.00
5980;DHT22;3016;50.308;8.258;2023-10-13T12:17:12;22.30;1.00
5980;DHT22;3016;50.308;8.258;2023-10-13T12:20:14;22.30;1.00
5980;DHT22;3016;50.308;8.258;2023-10-13T12:23:32;22.20;1.00
5980;DHT22;3016;50.308;8.258;2023-10-13T12:26:33;22.20;1.00
5980;DHT22;3016;50.308;8.258;2023-10-13T12:29:34;22.30;1.00
5980;DHT22;3016;50.308;8.258;2023-10-13T12:32:35;22.20;1.00
5980;DHT22;3016;50.308;8.258;2023-10-13T12:35:39;22.20;1.00
5980;DHT22;3016;50.308;8.258;2023-10-13T12:39:03;22.10;1.00
5980;DHT22;3016;50.308;8.258;2023-10-13T12:42:07;22.00;1.00
5980;DHT22;3016;50.308;8.258;2023-10-13T12:45:26;21.90;1.00
5980;DHT22;3016;50.308;8.258;2023-10-13T12:48:46;21.80;1.00
5980;DHT22;3016;50.308;8.258;2023-10-13T12:52:15;21.80;1.00
5980;DHT22;3016;50.308;8.258;2023-10-13T12:55:16;21.80;1.00
5980;DHT22;3016;50.308;8.258;2023-10-13T12:58:21;21.80;1.00
5980;DHT22;3016;50.308;8.258;2023-10-13T13:01:27;21.80;1.00
5980;DHT22;3016;50.308;8.258;2023-10-13T13:04:33;21.80;1.00
5980;DHT22;3016;50.308;8.258;2023-10-13T13:07:37;21.80;1.00
5980;DHT22;3016;50.308;8.258;2023-10-13T13:10:52;21.70;1.00
5980;DHT22;3016;50.308;8.258;2023-10-13T13:13:53;21.70;1.00
5980;DHT22;3016;50.308;8.258;2023-10-13T13:16:54;21.70;1.00
5980;DHT22;3016;50.308;8.258;2023-10-13T13:20:08;21.80;1.00
5980;DHT22;3016;50.308;8.258;2023-10-13T13:23:25;21.90;1.00
5980;DHT22;3016;50.308;8.258;2023-10-13T13:26:26;21.90;1.00
5980;DHT22;3016;50.308;8.258;2023-10-13T13:29:27;22.00;1.00
5980;DHT22;3016;50.308;8.258;2023-10-13T13:32:27;22.10;1.00
5980;DHT22;3016;50.308;8.258;2023-10-13T13:35:29;22.10;1.00
5980;DHT22;3016;50.308;8.258;2023-10-13T13:38:35;22.10;1.00
5980;DHT22;3016;50.308;8.258;2023-10-13T13:41:35;22.20;1.00
5980;DHT22;3016;50.308;8.258;2023-10-13T13:44:36;22.20;1.00
5980;DHT22;3016;50.308;8.258;2023-10-13T13:47:37;22.20;1.00
5980;DHT22;3016;50.308;8.258;2023-10-13T13:50:37;22.20;1.00
5980;DHT22;3016;50.308;8.258;2023-10-13T13:53:42;22.30;1.00
5980;DHT22;3016;50.308;8.258;2023-10-13T13:56:46;22.30;1.00
5980;DHT22;3016;50.308;8.258;2023-10-13T13:59:52;22.40;1.00
5980;DHT22;3016;50.308;8.258;2023-10-13T14:02:52;22.50;1.00
5980;DHT22;3016;50.308;8.258;2023-10-13T14:05:53;22.70;1.00
5980;DHT22;3016;50.308;8.258;2023-10-13T14:08:56;22.80;1.00
5980;DHT22;3016;50.308;8.258;2023-10-13T14:11:59;22.90;1.00
5980;DHT22;3016;50.308;8.258;2023-10-13T14:15:19;23.00;1.00
5980;DHT22;3016;50.308;8.258;2023-10-13T14:18:20;23.10;1.00
5980;DHT22;3016;50.308;8.258;2023-10-13T14:21:20;23.20;1.00
5980;DHT22;3016;50.308;8.258;2023-10-13T14:24:25;23.30;1.00
5980;DHT22;3016;50.308;8.258;2023-10-13T14:27:33;23.40;1.00
5980;DHT22;3016;50.308;8.258;2023-10-13T14:30:36;23.40;1.00
5980;DHT22;3016;50.308;8.258;2023-10-13T14:33:37;23.50;1.00
5980;DHT22;3016;50.308;8.258;2023-10-13T14:36:39;23.50;1.00
5980;DHT22;3016;50.308;8.258;2023-10-13T14:39:40;23.50;1.00
5980;DHT22;3016;50.308;8.258;2023-10-13T14:42:41;23.50;1.00
5980;DHT22;3016;50.308;8.258;2023-10-13T14:45:42;23.50;1.00
5980;DHT22;3016;50.308;8.258;2023-10-13T14:48:43;23.40;1.00
5980;DHT22;3016;50.308;8.258;2023-10-13T14:51:44;23.30;1.00
5980;DHT22;3016;50.308;8.258;2023-10-13T14:54:45;23.10;1.00
5980;DHT22;3016;50.308;8.258;2023-10-13T14:57:47;23.00;1.00
5980;DHT22;3016;50.308;8.258;2023-10-13T15:00:48;23.00;1.00
5980;DHT22;3016;50.308;8.258;2023-10-13T15:03:50;22.90;1.00
5980;DHT22;3016;50.308;8.258;2023-10-13T15:06:55;22.90;1.00
5980;DHT22;3016;50.308;8.258;2023-10-13T15:09:56;22.90;1.00
5980;DHT22;3016;50.308;8.258;2023-10-13T15:12:58;22.80;1.00
5980;DHT22;3016;50.308;8.258;2023-10-13T15:15:59;22.80;1.00
5980;DHT22;3016;50.308;8.258;2023-10-13T15:19:02;22.80;1.00
5980;DHT22;3016;50.308;8.258;2023-10-13T15:22:07;22.80;1.00
5980;DHT22;3016;50.308;8.258;2023-10-13T15:25:09;22.60;1.00
5980;DHT22;3016;50.308;8.258;2023-10-13T15:28:17;22.60;1.00
5980;DHT22;3016;50.308;8.258;2023-10-13T15:31:22;22.40;1.00
5980;DHT22;3016;50.308;8.258;2023-10-13T15:34:23;22.40;1.00
5980;DHT22;3016;50.308;8.258;2023-10-13T15:37:24;22.30;1.00
5980;DHT22;3016;50.308;8.258;2023-10-13T15:40:25;22.20;1.00
5980;DHT22;3016;50.308;8.258;2023-10-13T15:43:28;22.20;1.00
5980;DHT22;3016;50.308;8.258;2023-10-13T15:46:28;22.20;1.00
5980;DHT22;3016;50.308;8.258;2023-10-13T15:49:31;22.30;1.00
5980;DHT22;3016;50.308;8.258;2023-10-13T15:52:34;22.20;1.00
5980;DHT22;3016;50.308;8.258;2023-10-13T15:55:35;22.20;1.00
5980;DHT22;3016;50.308;8.258;2023-10-13T15:58:46;22.10;1.00
5980;DHT22;3016;50.308;8.258;2023-10-13T16:01:47;22.10;1.00
5980;DHT22;3016;50.308;8.258;2023-10-13T16:04:48;22.10;1.00
5980;DHT22;3016;50.308;8.258;2023-10-13T16:07:51;21.90;1.00
5980;DHT22;3016;50.308;8.258;2023-10-13T16:10:52;21.90;1.00
5980;DHT22;3016;50.308;8.258;2023-10-13T16:13:53;21.80;1.00
5980;DHT22;3016;50.308;8.258;2023-10-13T16:16:53;21.80;1.00
5980;DHT22;3016;50.308;8.258;2023-10-13T16:19:54;21.70;1.00
5980;DHT22;3016;50.308;8.258;2023-10-13T16:22:55;21.60;1.00
5980;DHT22;3016;50.308;8.258;2023-10-13T16:25:56;21.50;1.00
5980;DHT22;3016;50.308;8.258;2023-10-13T16:29:00;21.40;1.00
5980;DHT22;3016;50.308;8.258;2023-10-13T16:32:00;21.40;1.00
5980;DHT22;3016;50.308;8.258;2023-10-13T16:35:04;21.40;1.00
5980;DHT22;3016;50.308;8.258;2023-10-13T16:38:06;21.40;1.00
5980;DHT22;3016;50.308;8.258;2023-10-13T16:41:09;21.40;1.00
5980;DHT22;3016;50.308;8.258;2023-10-13T16:44:12;21.30;1.00
5980;DHT22;3016;50.308;8.258;2023-10-13T16:47:13;21.30;1.00
5980;DHT22;3016;50.308;8.258;2023-10-13T16:50:15;21.20;1.00
5980;DHT22;3016;50.308;8.258;2023-10-13T16:53:16;21.10;1.00
5980;DHT22;3016;50.308;8.258;2023-10-13T16:56:17;20.90;1.00
5980;DHT22;3016;50.308;8.258;2023-10-13T16:59:18;20.80;1.00
5980;DHT22;3016;50.308;8.258;2023-10-13T17:02:18;20.60;1.00
5980;DHT22;3016;50.308;8.258;2023-10-13T17:05:19;20.40;1.00
5980;DHT22;3016;50.308;8.258;2023-10-13T17:08:20;20.20;1.00
5980;DHT22;3016;50.308;8.258;2023-10-13T17:11:20;20.10;1.00
5980;DHT22;3016;50.308;8.258;2023-10-13T17:14:21;20.00;1.00
5980;DHT22;3016;50.308;8.258;2023-10-13T17:17:22;19.90;1.00
5980;DHT22;3016;50.308;8.258;2023-10-13T17:20:23;19.90;1.00
5980;DHT22;3016;50.308;8.258;2023-10-13T17:23:25;19.80;1.00
5980;DHT22;3016;50.308;8.258;2023-10-13T17:26:25;19.60;1.00
5980;DHT22;3016;50.308;8.258;2023-10-13T17:29:29;19.60;1.00
5980;DHT22;3016;50.308;8.258;2023-10-13T17:32:29;19.50;1.00
5980;DHT22;3016;50.308;8.258;2023-10-13T17:35:30;19.40;1.00
5980;DHT22;3016;50.308;8.258;2023-10-13T17:38:31;19.30;1.00
5980;DHT22;3016;50.308;8.258;2023-10-13T17:41:32;19.20;1.00
5980;DHT22;3016;50.308;8.258;2023-10-13T17:44:32;19.20;1.00
5980;DHT22;3016;50.308;8.258;2023-10-13T17:47:33;19.10;1.00
5980;DHT22;3016;50.308;8.258;2023-10-13T17:50:35;19.10;1.00
5980;DHT22;3016;50.308;8.258;2023-10-13T17:53:37;19.10;1.00
5980;DHT22;3016;50.308;8.258;2023-10-13T17:56:38;19.10;1.00
5980;DHT22;3016;50.308;8.258;2023-10-13T17:59:38;19.10;1.00
5980;DHT22;3016;50.308;8.258;2023-10-13T18:02:39;19.00;1.00
5980;DHT22;3016;50.308;8.258;2023-10-13T18:05:43;19.10;1.00
5980;DHT22;3016;50.308;8.258;2023-10-13T18:08:52;19.20;1.00
5980;DHT22;3016;50.308;8.258;2023-10-13T18:11:54;19.40;1.00
5980;DHT22;3016;50.308;8.258;2023-10-13T18:14:55;19.60;1.00
5980;DHT22;3016;50.308;8.258;2023-10-13T18:17:56;19.70;1.00
5980;DHT22;3016;50.308;8.258;2023-10-13T18:21:01;19.80;1.00
5980;DHT22;3016;50.308;8.258;2023-10-13T18:24:03;19.90;1.00
5980;DHT22;3016;50.308;8.258;2023-10-13T18:27:04;20.00;1.00
5980;DHT22;3016;50.308;8.258;2023-10-13T18:30:08;20.20;1.00
5980;DHT22;3016;50.308;8.258;2023-10-13T18:33:12;20.20;1.00
5980;DHT22;3016;50.308;8.258;2023-10-13T18:36:17;20.30;1.00
5980;DHT22;3016;50.308;8.258;2023-10-13T18:39:19;20.40;1.00
5980;DHT22;3016;50.308;8.258;2023-10-13T18:42:20;20.30;1.00
5980;DHT22;3016;50.308;8.258;2023-10-13T18:45:20;20.30;1.00
5980;DHT22;3016;50.308;8.258;2023-10-13T18:48:22;20.30;1.00
5980;DHT22;3016;50.308;8.258;2023-10-13T18:51:24;20.20;1.00
5980;DHT22;3016;50.308;8.258;2023-10-13T18:54:25;20.20;1.00
5980;DHT22;3016;50.308;8.258;2023-10-13T18:57:26;20.20;1.00
5980;DHT22;3016;50.308;8.258;2023-10-13T19:00:27;20.20;1.00
5980;DHT22;3016;50.308;8.258;2023-10-13T19:03:28;20.30;1.00
5980;DHT22;3016;50.308;8.258;2023-10-13T19:06:30;20.20;1.00
5980;DHT22;3016;50.308;8.258;2023-10-13T19:09:32;20.20;1.00
5980;DHT22;3016;50.308;8.258;2023-10-13T19:12:32;20.20;1.00
5980;DHT22;3016;50.308;8.258;2023-10-13T19:15:36;20.30;1.00
5980;DHT22;3016;50.308;8.258;2023-10-13T19:18:37;20.30;1.00
5980;DHT22;3016;50.308;8.258;2023-10-13T19:21:37;20.40;1.00
5980;DHT22;3016;50.308;8.258;2023-10-13T19:24:38;20.40;1.00
5980;DHT22;3016;50.308;8.258;2023-10-13T19:27:41;20.30;1.00
5980;DHT22;3016;50.308;8.258;2023-10-13T19:30:42;20.40;1.00
5980;DHT22;3016;50.308;8.258;2023-10-13T19:33:44;20.60;1.00
5980;DHT22;3016;50.308;8.258;2023-10-13T19:36:46;20.70;1.00
5980;DHT22;3016;50.308;8.258;2023-10-13T19:39:48;20.70;1.00
5980;DHT22;3016;50.308;8.258;2023-10-13T19:42:49;20.80;1.00
5980;DHT22;3016;50.308;8.258;2023-10-13T19:45:51;20.80;1.00
5980;DHT22;3016;50.308;8.258;2023-10-13T19:48:52;20.80;1.00
5980;DHT22;3016;50.308;8.258;2023-10-13T19:51:53;20.90;1.00
5980;DHT22;3016;50.308;8.258;2023-10-13T19:54:58;20.90;1.00
5980;DHT22;3016;50.308;8.258;2023-10-13T19:57:59;21.00;1.00
5980;DHT22;3016;50.308;8.258;2023-10-13T20:01:06;21.10;1.00
5980;DHT22;3016;50.308;8.258;2023-10-13T20:04:08;21.10;1.00
5980;DHT22;3016;50.308;8.258;2023-10-13T20:07:10;21.10;1.00
5980;DHT22;3016;50.308;8.258;2023-10-13T20:10:12;21.20;1.00
5980;DHT22;3016;50.308;8.258;2023-10-13T20:13:13;21.20;1.00
5980;DHT22;3016;50.308;8.258;2023-10-13T20:16:15;21.30;1.00
5980;DHT22;3016;50.308;8.258;2023-10-13T20:19:23;21.30;1.00
5980;DHT22;3016;50.308;8.258;2023-10-13T20:22:24;21.30;1.00
5980;DHT22;3016;50.308;8.258;2023-10-13T20:25:25;21.20;1.00
5980;DHT22;3016;50.308;8.258;2023-10-13T20:28:26;21.20;1.00
5980;DHT22;3016;50.308;8.258;2023-10-13T20:31:27;21.20;1.00